Time;durP1;ratioP1;P1;durP2;ratioP2;P2;SDS_P1;SDS_P2;PMS_P1;PMS_P2;Temp;Humidity;BMP_temperature;BMP_pressure;BME280_temperature;BME280_humidity;BME280_pressure;Samples;Min_cycle;Max_cycle;Signal;HPM_P1;HPM_P2
2022/05/14 00:00:10;;;;;;;;;;;;;;;;;;348630;28;939;-77
2022/05/14 00:00:25;;;;;;;;;;;;;;;;;;348388;28;1664;-77
2022/05/14 00:00:35;;;;;;;;;;;;;;;;;;348576;28;863;-77
2022/05/14 00:00:46;;;;;;;;;;;;;;;;;;348636;28;993;-77
2022/05/14 00:00:57;;;;;;;;;;;;;;;;;;348569;28;841;-77
2022/05/14 00:01:08;;;;;;;;;;;;;;;;;;348626;28;1004;-77
2022/05/14 00:01:18;;;;;;;;;;;;;;;;;;348673;28;878;-77
2022/05/14 00:01:29;;;;;;;;;;;;;;;;;;348568;28;985;-77
2022/05/14 00:01:40;;;;;;;;;;;;;;;;;;348595;28;949;-77
2022/05/14 00:01:50;;;;;;;;;;;;;;;;;;348653;28;828;-77
2022/05/14 00:02:01;;;;;;;;;;;;;;;;;;348587;28;952;-77
2022/05/14 00:02:11;;;;;;;;;;;;;;;;;;348670;28;1499;-77
2022/05/14 00:02:22;;;;;;;;;;;;;;;;;;348697;28;897;-77
2022/05/14 00:02:32;;;;;;;;;;;;;;;;;;348384;28;979;-77
2022/05/14 00:02:43;;;;;;;;;;;;;;;;;;348600;28;913;-77
2022/05/14 00:02:55;;;;;;;;;;;;;;;;;;348600;28;940;-77
2022/05/14 00:03:06;;;;;;;;;;;;;;;;;;348571;28;845;-77
2022/05/14 00:03:17;;;;;;;;;;;;;;;;;;348676;28;841;-77
2022/05/14 00:03:28;;;;;;;;;;;;;;;;;;348595;28;893;-77
2022/05/14 00:03:39;;;;;;;;;;;;;;;;;;348556;28;853;-77
2022/05/14 00:03:50;;;;;;;;;;;;;;;;;;348602;28;885;-77
2022/05/14 00:04:00;;;;;;;;;;;;;;;;;;348566;28;994;-77
2022/05/14 00:04:11;;;;;;;;;;;;;;;;;;348905;28;1397;-76
2022/05/14 00:04:21;;;;;;;;;;;;;;;;;;350062;28;913;-77
2022/05/14 00:04:31;;;;;;;;;;;;;;;;;;350018;28;822;-76
2022/05/14 00:04:42;;;;;;;;;;;;;;;;;;349983;28;944;-77
2022/05/14 00:04:52;;;;;;;;;;;;;;;;;;350060;28;805;-77
2022/05/14 00:05:03;;;;;;;;;;;;;;;;;;349980;28;809;-77
2022/05/14 00:05:13;;;;;;;;;;;;;;;;;;349966;28;1147;-77
2022/05/14 00:05:24;;;;;;;;;;;;;;;;;;350009;28;802;-77
2022/05/14 00:05:35;;;;;;;;;;;;;;;;;;349866;28;844;-77
2022/05/14 00:05:54;;;;;;;;;;;;;;;;;;349960;28;900;-77
2022/05/14 00:06:14;;;;;;;;;;;;;;;;;;350221;28;912;-76
2022/05/14 00:06:26;;;;;;;;;;;;;;;;;;350003;28;887;-77
2022/05/14 00:06:40;;;;;;;;;;;;;;;;;;350006;28;892;-77
2022/05/14 00:06:51;;;;;;;;;;;;;;;;;;349977;28;907;-77
2022/05/14 00:07:01;;;;;;;;;;;;;;;;;;350014;28;802;-77
2022/05/14 00:07:12;;;;;;;;;;;;;;;;;;349946;28;883;-77
2022/05/14 00:07:28;;;;;;;;;;;;;;;;;;349688;28;1520;-77
2022/05/14 00:07:41;;;;;;;;;;;;;;;;;;349832;28;1472;-77
2022/05/14 00:07:54;;;;;;;;;;;;;;;;;;349889;28;1043;-77
2022/05/14 00:08:11;;;;;;;;;;;;;;;;;;349957;28;938;-77
2022/05/14 00:08:25;;;;;;;;;;;;;;;;;;348508;28;1112;-77
2022/05/14 00:08:38;;;;;;;;;;;;;;;;;;348178;28;991;-77
2022/05/14 00:08:52;;;;;;;;;;;;;;;;;;348520;28;819;-77
2022/05/14 00:09:05;;;;;;;;;;;;;;;;;;348618;28;849;-77
2022/05/14 00:09:15;;;;;;;;;;;;;;;;;;348464;28;980;-77
2022/05/14 00:09:29;;;;;;;;;;;;;;;;;;348465;28;1034;-77
2022/05/14 00:09:39;;;;;;;;;;;;;;;;;;348647;28;830;-77
2022/05/14 00:09:50;;;;;;;;;;;;;;;;;;348565;28;853;-77
2022/05/14 00:10:04;;;;;;;;;;;;;;;;;;348530;28;1906;-77
2022/05/14 00:10:18;;;;;;;;;;;;;;;;;;348571;28;883;-77
2022/05/14 00:10:31;;;;;;;;;;;;;;;;;;348617;28;830;-77
2022/05/14 00:13:09;;;;;;;;;;;;;;;;;;348372;28;1503;-77
2022/05/14 00:13:23;;;;;;;;;;;;;;;;;;348945;28;998;-77
2022/05/14 00:13:40;;;;;;;;;;;;;;;;;;348691;28;902;-76
2022/05/14 00:13:51;;;;;;;;;;;;;;;;;;348710;28;932;-77
2022/05/14 00:14:03;;;;;;;;;;;;;;;;;;348614;28;810;-77
2022/05/14 00:14:13;;;;;;;;;;;;;;;;;;348549;28;1281;-77
2022/05/14 00:14:26;;;;;;;;;;;;;;;;;;348691;28;963;-77
2022/05/14 00:14:37;;;;;;;;;;;;;;;;;;348891;28;1988;-76
2022/05/14 00:14:47;;;;;;;;;;;;;;;;;;350292;28;1622;-77
2022/05/14 00:14:58;;;;;;;;;;;;;;;;;;351524;28;920;-77
2022/05/14 00:15:08;;;;;;;;;;;;;;;;;;350868;28;1067;-77
2022/05/14 00:15:25;;;;;;;;;;;;;;;;;;349752;28;1701;-77
2022/05/14 00:15:40;;;;;;;;;;;;;;;;;;348787;28;898;-77
2022/05/14 00:15:51;;;;;;;;;;;;;;;;;;348686;28;901;-77
2022/05/14 00:16:05;;;;;;;;;;;;;;;;;;348380;28;898;-77
2022/05/14 00:16:23;;;;;;;;;;;;;;;;;;348306;28;926;-77
2022/05/14 00:16:34;;;;;;;;;;;;;;;;;;348545;28;1554;-77
2022/05/14 00:16:45;;;;;;;;;;;;;;;;;;348921;28;1655;-77
2022/05/14 00:16:56;;;;;;;;;;;;;;;;;;348742;28;847;-77
2022/05/14 00:17:07;;;;;;;;;;;;;;;;;;348753;28;893;-77
2022/05/14 00:17:18;;;;;;;;;;;;;;;;;;348694;28;883;-77
2022/05/14 00:17:28;;;;;;;;;;;;;;;;;;348700;28;913;-77
2022/05/14 00:17:39;;;;;;;;;;;;;;;;;;348691;28;928;-77
2022/05/14 00:17:54;;;;;;;;;;;;;;;;;;348642;28;924;-77
2022/05/14 00:18:10;;;;;;;;;;;;;;;;;;348715;28;857;-77
2022/05/14 00:18:23;;;;;;;;;;;;;;;;;;348599;28;822;-77
2022/05/14 00:18:34;;;;;;;;;;;;;;;;;;348594;28;1508;-77
2022/05/14 00:18:45;;;;;;;;;;;;;;;;;;349595;28;1487;-77
2022/05/14 00:18:56;;;;;;;;;;;;;;;;;;350007;28;1007;-77
2022/05/14 00:19:09;;;;;;;;;;;;;;;;;;350370;28;869;-77
2022/05/14 00:19:20;;;;;;;;;;;;;;;;;;350131;28;911;-77
2022/05/14 00:19:31;;;;;;;;;;;;;;;;;;350051;28;937;-77
2022/05/14 00:19:43;;;;;;;;;;;;;;;;;;350039;28;860;-77
2022/05/14 00:19:54;;;;;;;;;;;;;;;;;;350147;28;860;-77
2022/05/14 00:20:04;;;;;;;;;;;;;;;;;;350005;28;901;-77
2022/05/14 00:20:15;;;;;;;;;;;;;;;;;;350037;28;865;-76
2022/05/14 00:20:28;;;;;;;;;;;;;;;;;;350126;28;900;-77
2022/05/14 00:20:39;;;;;;;;;;;;;;;;;;350015;28;865;-77
2022/05/14 00:20:50;;;;;;;;;;;;;;;;;;350105;28;860;-77
2022/05/14 00:21:01;;;;;;;;;;;;;;;;;;350108;28;928;-77
2022/05/14 00:21:12;;;;;;;;;;;;;;;;;;349968;28;865;-77
2022/05/14 00:21:26;;;;;;;;;;;;;;;;;;350122;28;888;-77
2022/05/14 00:21:40;;;;;;;;;;;;;;;;;;350123;28;877;-77
2022/05/14 00:21:50;;;;;;;;;;;;;;;;;;350022;28;898;-77
2022/05/14 00:22:06;;;;;;;;;;;;;;;;;;349696;28;953;-77
2022/05/14 00:22:22;;;;;;;;;;;;;;;;;;350079;28;802;-77
2022/05/14 00:22:36;;;;;;;;;;;;;;;;;;350120;28;829;-76
2022/05/14 00:22:46;;;;;;;;;;;;;;;;;;349600;28;899;-77
2022/05/14 00:22:57;;;;;;;;;;;;;;;;;;350109;28;852;-77
2022/05/14 00:23:07;;;;;;;;;;;;;;;;;;349593;28;1508;-77
2022/05/14 00:23:18;;;;;;;;;;;;;;;;;;349613;28;1592;-77
2022/05/14 00:23:29;;;;;;;;;;;;;;;;;;350110;28;968;-77
2022/05/14 00:23:47;;;;;;;;;;;;;;;;;;350280;28;944;-77
2022/05/14 00:23:58;;;;;;;;;;;;;;;;;;350093;28;877;-77
2022/05/14 00:24:09;;;;;;;;;;;;;;;;;;350149;28;854;-77
2022/05/14 00:24:23;;;;;;;;;;;;;;;;;;350053;28;813;-77
2022/05/14 00:24:36;;;;;;;;;;;;;;;;;;350139;28;912;-77
2022/05/14 00:24:50;;;;;;;;;;;;;;;;;;350095;28;881;-77
2022/05/14 00:25:00;;;;;;;;;;;;;;;;;;350051;28;868;-77
2022/05/14 00:25:18;;;;;;;;;;;;;;;;;;350380;28;960;-77
2022/05/14 00:25:35;;;;;;;;;;;;;;;;;;350135;28;930;-77
2022/05/14 00:25:59;;;;;;;;;;;;;;;;;;349970;28;924;-77
2022/05/14 00:26:10;;;;;;;;;;;;;;;;;;350003;28;924;-77
2022/05/14 00:26:21;;;;;;;;;;;;;;;;;;349908;28;806;-77
2022/05/14 00:26:32;;;;;;;;;;;;;;;;;;349947;28;855;-77
2022/05/14 00:26:43;;;;;;;;;;;;;;;;;;349961;28;825;-77
2022/05/14 00:26:53;;;;;;;;;;;;;;;;;;349955;28;872;-77
2022/05/14 00:27:06;;;;;;;;;;;;;;;;;;349863;28;971;-77
2022/05/14 00:27:17;;;;;;;;;;;;;;;;;;349902;28;923;-77
2022/05/14 00:27:30;;;;;;;;;;;;;;;;;;349162;28;1015;-77
2022/05/14 00:27:41;;;;;;;;;;;;;;;;;;350029;28;864;-77
2022/05/14 00:27:52;;;;;;;;;;;;;;;;;;350107;28;889;-77
2022/05/14 00:28:03;;;;;;;;;;;;;;;;;;350045;28;933;-76
2022/05/14 00:28:19;;;;;;;;;;;;;;;;;;349256;28;1897;-77
2022/05/14 00:28:30;;;;;;;;;;;;;;;;;;348845;28;846;-76
2022/05/14 00:28:40;;;;;;;;;;;;;;;;;;350307;28;983;-76
2022/05/14 00:28:51;;;;;;;;;;;;;;;;;;350101;28;945;-76
2022/05/14 00:29:01;;;;;;;;;;;;;;;;;;349947;28;861;-76
2022/05/14 00:29:13;;;;;;;;;;;;;;;;;;349972;28;949;-76
2022/05/14 00:29:23;;;;;;;;;;;;;;;;;;349982;28;909;-76
2022/05/14 00:29:33;;;;;;;;;;;;;;;;;;349999;28;837;-76
2022/05/14 00:29:44;;;;;;;;;;;;;;;;;;349525;28;1547;-76
2022/05/14 00:29:55;;;;;;;;;;;;;;;;;;348600;28;814;-76
2022/05/14 00:30:06;;;;;;;;;;;;;;;;;;348361;28;1972;-76
2022/05/14 00:30:18;;;;;;;;;;;;;;;;;;348520;28;1168;-76
2022/05/14 00:30:29;;;;;;;;;;;;;;;;;;348610;28;920;-76
2022/05/14 00:30:40;;;;;;;;;;;;;;;;;;348502;28;1010;-75
2022/05/14 00:30:50;;;;;;;;;;;;;;;;;;348727;28;869;-76
2022/05/14 00:31:01;;;;;;;;;;;;;;;;;;348715;28;800;-76
2022/05/14 00:31:11;;;;;;;;;;;;;;;;;;348696;28;823;-75
2022/05/14 00:31:22;;;;;;;;;;;;;;;;;;348658;28;984;-76
2022/05/14 00:31:32;;;;;;;;;;;;;;;;;;348652;28;893;-76
2022/05/14 00:31:43;;;;;;;;;;;;;;;;;;348723;28;868;-76
2022/05/14 00:31:53;;;;;;;;;;;;;;;;;;348684;28;879;-77
2022/05/14 00:32:04;;;;;;;;;;;;;;;;;;348551;28;982;-76
2022/05/14 00:32:14;;;;;;;;;;;;;;;;;;348518;28;793;-76
2022/05/14 00:32:24;;;;;;;;;;;;;;;;;;348552;28;951;-76
2022/05/14 00:32:37;;;;;;;;;;;;;;;;;;348565;28;939;-76
2022/05/14 00:32:47;;;;;;;;;;;;;;;;;;348597;28;908;-76
2022/05/14 00:32:58;;;;;;;;;;;;;;;;;;348533;28;995;-76
2022/05/14 00:33:09;;;;;;;;;;;;;;;;;;348323;28;1437;-76
2022/05/14 00:33:19;;;;;;;;;;;;;;;;;;348621;28;869;-76
2022/05/14 00:33:30;;;;;;;;;;;;;;;;;;348574;28;1052;-76
2022/05/14 00:33:40;;;;;;;;;;;;;;;;;;348722;28;818;-76
2022/05/14 00:33:50;;;;;;;;;;;;;;;;;;348696;28;979;-76
2022/05/14 00:34:01;;;;;;;;;;;;;;;;;;348664;28;869;-76
2022/05/14 00:34:11;;;;;;;;;;;;;;;;;;348613;28;872;-76
2022/05/14 00:34:22;;;;;;;;;;;;;;;;;;348720;28;912;-76
2022/05/14 00:34:32;;;;;;;;;;;;;;;;;;348720;28;861;-76
2022/05/14 00:34:42;;;;;;;;;;;;;;;;;;348662;28;864;-76
2022/05/14 00:34:53;;;;;;;;;;;;;;;;;;348528;28;1468;-76
2022/05/14 00:35:04;;;;;;;;;;;;;;;;;;349044;28;1582;-76
2022/05/14 00:35:14;;;;;;;;;;;;;;;;;;348747;28;1511;-76
2022/05/14 00:35:25;;;;;;;;;;;;;;;;;;350105;28;852;-76
2022/05/14 00:35:36;;;;;;;;;;;;;;;;;;349975;28;1010;-76
2022/05/14 00:35:46;;;;;;;;;;;;;;;;;;350071;28;904;-76
2022/05/14 00:35:57;;;;;;;;;;;;;;;;;;350112;28;845;-76
2022/05/14 00:36:07;;;;;;;;;;;;;;;;;;350056;28;995;-76
2022/05/14 00:36:18;;;;;;;;;;;;;;;;;;349983;28;1048;-76
2022/05/14 00:36:28;;;;;;;;;;;;;;;;;;350072;28;865;-76
2022/05/14 00:36:38;;;;;;;;;;;;;;;;;;350105;28;809;-76
2022/05/14 00:36:49;;;;;;;;;;;;;;;;;;350116;28;979;-76
2022/05/14 00:37:00;;;;;;;;;;;;;;;;;;350045;28;805;-76
2022/05/14 00:37:10;;;;;;;;;;;;;;;;;;350122;28;876;-76
2022/05/14 00:37:20;;;;;;;;;;;;;;;;;;350107;28;935;-76
2022/05/14 00:37:31;;;;;;;;;;;;;;;;;;349898;28;1476;-76
2022/05/14 00:37:42;;;;;;;;;;;;;;;;;;350021;28;852;-76
2022/05/14 00:37:52;;;;;;;;;;;;;;;;;;350091;28;814;-76
2022/05/14 00:38:03;;;;;;;;;;;;;;;;;;350114;28;919;-76
2022/05/14 00:38:13;;;;;;;;;;;;;;;;;;349627;28;1496;-76
2022/05/14 00:38:24;;;;;;;;;;;;;;;;;;350001;28;889;-76
2022/05/14 00:38:34;;;;;;;;;;;;;;;;;;350101;28;821;-76
2022/05/14 00:38:45;;;;;;;;;;;;;;;;;;350063;28;809;-76
2022/05/14 00:38:55;;;;;;;;;;;;;;;;;;350139;28;928;-76
2022/05/14 00:39:05;;;;;;;;;;;;;;;;;;350063;28;912;-76
2022/05/14 00:39:16;;;;;;;;;;;;;;;;;;350094;28;868;-76
2022/05/14 00:39:26;;;;;;;;;;;;;;;;;;350083;28;825;-76
2022/05/14 00:39:37;;;;;;;;;;;;;;;;;;350148;28;864;-76
2022/05/14 00:39:47;;;;;;;;;;;;;;;;;;350025;28;907;-76
2022/05/14 00:39:59;;;;;;;;;;;;;;;;;;350114;28;832;-76
2022/05/14 00:40:12;;;;;;;;;;;;;;;;;;350020;28;912;-76
2022/05/14 00:40:22;;;;;;;;;;;;;;;;;;350088;28;864;-76
2022/05/14 00:40:34;;;;;;;;;;;;;;;;;;349937;28;956;-76
2022/05/14 00:40:48;;;;;;;;;;;;;;;;;;350072;28;833;-76
2022/05/14 00:41:00;;;;;;;;;;;;;;;;;;350045;28;860;-76
2022/05/14 00:41:10;;;;;;;;;;;;;;;;;;350113;28;904;-76
2022/05/14 00:41:21;;;;;;;;;;;;;;;;;;350052;28;873;-76
2022/05/14 00:41:32;;;;;;;;;;;;;;;;;;350043;28;1157;-76
2022/05/14 00:41:46;;;;;;;;;;;;;;;;;;350015;28;884;-76
2022/05/14 00:41:56;;;;;;;;;;;;;;;;;;350124;28;928;-76
2022/05/14 00:42:07;;;;;;;;;;;;;;;;;;350020;28;889;-76
2022/05/14 00:42:18;;;;;;;;;;;;;;;;;;350115;28;982;-76
2022/05/14 00:42:28;;;;;;;;;;;;;;;;;;350145;28;868;-76
2022/05/14 00:42:38;;;;;;;;;;;;;;;;;;350018;28;868;-76
2022/05/14 00:42:49;;;;;;;;;;;;;;;;;;350095;28;845;-76
2022/05/14 00:42:59;;;;;;;;;;;;;;;;;;350056;28;935;-76
2022/05/14 00:43:10;;;;;;;;;;;;;;;;;;349269;28;1488;-76
2022/05/14 00:43:20;;;;;;;;;;;;;;;;;;348680;28;810;-76
2022/05/14 00:43:31;;;;;;;;;;;;;;;;;;348717;28;845;-76
2022/05/14 00:43:49;;;;;;;;;;;;;;;;;;348587;28;984;-76
2022/05/14 00:44:00;;;;;;;;;;;;;;;;;;348463;28;932;-76
2022/05/14 00:44:10;;;;;;;;;;;;;;;;;;348411;28;933;-76
2022/05/14 00:44:20;;;;;;;;;;;;;;;;;;348567;28;846;-76
2022/05/14 00:44:31;;;;;;;;;;;;;;;;;;348717;28;904;-76
2022/05/14 00:44:41;;;;;;;;;;;;;;;;;;348563;28;814;-76
2022/05/14 00:44:52;;;;;;;;;;;;;;;;;;348661;28;869;-76
2022/05/14 00:45:03;;;;;;;;;;;;;;;;;;348686;28;865;-76
2022/05/14 00:45:15;;;;;;;;;;;;;;;;;;348641;28;913;-76
2022/05/14 00:45:26;;;;;;;;;;;;;;;;;;348666;28;886;-76
2022/05/14 00:45:39;;;;;;;;;;;;;;;;;;348642;28;842;-76
2022/05/14 00:45:56;;;;;;;;;;;;;;;;;;348534;28;1469;-76
2022/05/14 00:46:18;;;;;;;;;;;;;;;;;;349912;28;861;-76
2022/05/14 00:46:36;;;;;;;;;;;;;;;;;;349918;28;920;-75
2022/05/14 00:46:48;;;;;;;;;;;;;;;;;;349829;28;1059;-75
2022/05/14 00:47:00;;;;;;;;;;;;;;;;;;349850;28;991;-76
2022/05/14 00:47:12;;;;;;;;;;;;;;;;;;349927;28;857;-76
2022/05/14 00:47:23;;;;;;;;;;;;;;;;;;349921;28;972;-76
2022/05/14 00:47:35;;;;;;;;;;;;;;;;;;349888;28;925;-76
2022/05/14 00:47:48;;;;;;;;;;;;;;;;;;349351;28;1310;-76
2022/05/14 00:47:59;;;;;;;;;;;;;;;;;;349932;28;939;-76
2022/05/14 00:48:11;;;;;;;;;;;;;;;;;;349899;28;1285;-76
2022/05/14 00:48:23;;;;;;;;;;;;;;;;;;349947;28;857;-76
2022/05/14 00:48:36;;;;;;;;;;;;;;;;;;349884;28;1007;-76
2022/05/14 00:48:47;;;;;;;;;;;;;;;;;;349871;28;912;-76
2022/05/14 00:48:58;;;;;;;;;;;;;;;;;;349685;28;1259;-76
2022/05/14 00:49:09;;;;;;;;;;;;;;;;;;349943;28;920;-76
2022/05/14 00:49:21;;;;;;;;;;;;;;;;;;349896;28;809;-76
2022/05/14 00:49:33;;;;;;;;;;;;;;;;;;349884;28;1010;-75
2022/05/14 00:49:44;;;;;;;;;;;;;;;;;;349429;28;1287;-76
2022/05/14 00:49:55;;;;;;;;;;;;;;;;;;348627;28;1006;-76
2022/05/14 00:50:09;;;;;;;;;;;;;;;;;;348445;28;1910;-76
2022/05/14 00:50:22;;;;;;;;;;;;;;;;;;348508;28;1015;-75
2022/05/14 00:50:42;;;;;;;;;;;;;;;;;;348577;28;1670;-76
2022/05/14 00:50:54;;;;;;;;;;;;;;;;;;348502;28;857;-75
2022/05/14 00:51:06;;;;;;;;;;;;;;;;;;348571;28;906;-76
2022/05/14 00:51:18;;;;;;;;;;;;;;;;;;348459;28;881;-76
2022/05/14 00:51:29;;;;;;;;;;;;;;;;;;348552;28;845;-76
2022/05/14 00:51:41;;;;;;;;;;;;;;;;;;348490;28;1105;-76
2022/05/14 00:51:54;;;;;;;;;;;;;;;;;;348698;28;1428;-76
2022/05/14 00:52:04;;;;;;;;;;;;;;;;;;349835;28;873;-76
2022/05/14 00:52:16;;;;;;;;;;;;;;;;;;349951;28;874;-76
2022/05/14 00:52:27;;;;;;;;;;;;;;;;;;349840;28;1159;-76
2022/05/14 00:52:38;;;;;;;;;;;;;;;;;;349917;28;812;-76
2022/05/14 00:52:49;;;;;;;;;;;;;;;;;;349948;28;849;-76
2022/05/14 00:53:04;;;;;;;;;;;;;;;;;;349824;28;853;-76
2022/05/14 00:53:18;;;;;;;;;;;;;;;;;;349974;28;846;-76
2022/05/14 00:53:36;;;;;;;;;;;;;;;;;;349933;28;857;-76
2022/05/14 00:53:52;;;;;;;;;;;;;;;;;;349969;28;828;-76
2022/05/14 00:54:04;;;;;;;;;;;;;;;;;;349904;28;1045;-76
2022/05/14 00:54:17;;;;;;;;;;;;;;;;;;349882;28;1006;-76
2022/05/14 00:54:32;;;;;;;;;;;;;;;;;;349960;28;952;-76
2022/05/14 00:54:50;;;;;;;;;;;;;;;;;;349915;28;905;-76
2022/05/14 00:55:03;;;;;;;;;;;;;;;;;;348324;28;1702;-76
2022/05/14 00:55:13;;;;;;;;;;;;;;;;;;348565;28;1012;-76
2022/05/14 00:55:24;;;;;;;;;;;;;;;;;;348539;28;881;-76
2022/05/14 00:55:35;;;;;;;;;;;;;;;;;;348474;28;909;-76
2022/05/14 00:55:48;;;;;;;;;;;;;;;;;;348574;28;853;-76
2022/05/14 00:56:01;;;;;;;;;;;;;;;;;;348535;28;982;-76
2022/05/14 00:56:13;;;;;;;;;;;;;;;;;;348461;28;920;-76
2022/05/14 00:56:28;;;;;;;;;;;;;;;;;;348494;28;1001;-76
2022/05/14 00:56:48;;;;;;;;;;;;;;;;;;348542;28;854;-76
2022/05/14 00:57:01;;;;;;;;;;;;;;;;;;348707;28;1535;-76
2022/05/14 00:57:13;;;;;;;;;;;;;;;;;;350626;28;1674;-76
2022/05/14 00:57:25;;;;;;;;;;;;;;;;;;351350;28;938;-76
2022/05/14 00:57:38;;;;;;;;;;;;;;;;;;350397;28;1722;-76
2022/05/14 00:57:49;;;;;;;;;;;;;;;;;;349942;28;936;-76
2022/05/14 00:58:00;;;;;;;;;;;;;;;;;;349920;28;997;-75
2022/05/14 00:58:14;;;;;;;;;;;;;;;;;;349830;28;920;-76
2022/05/14 00:58:45;;;;;;;;;;;;;;;;;;349888;28;929;-76
2022/05/14 00:59:01;;;;;;;;;;;;;;;;;;349932;28;917;-76
2022/05/14 00:59:13;;;;;;;;;;;;;;;;;;348493;28;865;-76
2022/05/14 00:59:25;;;;;;;;;;;;;;;;;;348479;28;935;-76
2022/05/14 00:59:36;;;;;;;;;;;;;;;;;;348523;28;1527;-76
2022/05/14 00:59:47;;;;;;;;;;;;;;;;;;349971;28;1503;-76
2022/05/14 00:59:59;;;;;;;;;;;;;;;;;;351375;28;896;-76
2022/05/14 01:00:14;;;;;;;;;;;;;;;;;;351290;28;813;-76
2022/05/14 01:00:25;;;;;;;;;;;;;;;;;;348621;28;893;-76
2022/05/14 01:00:36;;;;;;;;;;;;;;;;;;348519;28;886;-76
2022/05/14 01:00:47;;;;;;;;;;;;;;;;;;348575;28;988;-75
2022/05/14 01:00:57;;;;;;;;;;;;;;;;;;348547;28;913;-75
2022/05/14 01:01:08;;;;;;;;;;;;;;;;;;348556;28;912;-76
2022/05/14 01:01:18;;;;;;;;;;;;;;;;;;348505;28;1006;-76
2022/05/14 01:01:29;;;;;;;;;;;;;;;;;;348646;28;916;-76
2022/05/14 01:01:41;;;;;;;;;;;;;;;;;;348677;28;866;-76
2022/05/14 01:01:51;;;;;;;;;;;;;;;;;;348684;28;860;-76
2022/05/14 01:02:02;;;;;;;;;;;;;;;;;;348648;28;893;-76
2022/05/14 01:02:13;;;;;;;;;;;;;;;;;;348719;28;861;-76
2022/05/14 01:02:23;;;;;;;;;;;;;;;;;;348598;28;960;-76
2022/05/14 01:02:34;;;;;;;;;;;;;;;;;;348709;28;991;-76
2022/05/14 01:02:44;;;;;;;;;;;;;;;;;;349331;28;1464;-76
2022/05/14 01:02:55;;;;;;;;;;;;;;;;;;349918;28;1173;-76
2022/05/14 01:03:05;;;;;;;;;;;;;;;;;;350077;28;912;-76
2022/05/14 01:03:16;;;;;;;;;;;;;;;;;;350065;28;913;-76
2022/05/14 01:03:26;;;;;;;;;;;;;;;;;;349898;28;989;-76
2022/05/14 01:03:36;;;;;;;;;;;;;;;;;;349976;28;818;-76
2022/05/14 01:03:47;;;;;;;;;;;;;;;;;;350102;28;855;-77
2022/05/14 01:03:57;;;;;;;;;;;;;;;;;;349723;28;1030;-76
2022/05/14 01:04:11;;;;;;;;;;;;;;;;;;349975;28;948;-77
2022/05/14 01:04:22;;;;;;;;;;;;;;;;;;349989;28;989;-77
2022/05/14 01:04:33;;;;;;;;;;;;;;;;;;350039;28;920;-77
2022/05/14 01:04:45;;;;;;;;;;;;;;;;;;350046;28;921;-77
2022/05/14 01:05:01;;;;;;;;;;;;;;;;;;348645;28;862;-77
2022/05/14 01:05:12;;;;;;;;;;;;;;;;;;348589;28;1156;-77
2022/05/14 01:05:23;;;;;;;;;;;;;;;;;;348518;28;1010;-76
2022/05/14 01:05:37;;;;;;;;;;;;;;;;;;348457;28;936;-76
2022/05/14 01:05:47;;;;;;;;;;;;;;;;;;348532;28;976;-77
2022/05/14 01:06:00;;;;;;;;;;;;;;;;;;348556;28;873;-77
2022/05/14 01:06:14;;;;;;;;;;;;;;;;;;348535;28;994;-77
2022/05/14 01:06:29;;;;;;;;;;;;;;;;;;347695;28;1213;-77
2022/05/14 01:06:44;;;;;;;;;;;;;;;;;;348557;28;818;-77
2022/05/14 01:07:04;;;;;;;;;;;;;;;;;;348556;28;976;-77
2022/05/14 01:07:16;;;;;;;;;;;;;;;;;;348600;28;897;-77
2022/05/14 01:07:28;;;;;;;;;;;;;;;;;;349421;28;1484;-77
2022/05/14 01:07:39;;;;;;;;;;;;;;;;;;349977;28;933;-77
2022/05/14 01:07:54;;;;;;;;;;;;;;;;;;350270;28;1238;-77
2022/05/14 01:08:04;;;;;;;;;;;;;;;;;;349981;28;936;-77
2022/05/14 01:08:15;;;;;;;;;;;;;;;;;;350086;28;793;-77
2022/05/14 01:08:29;;;;;;;;;;;;;;;;;;350025;28;819;-77
2022/05/14 01:08:43;;;;;;;;;;;;;;;;;;350005;28;866;-76
2022/05/14 01:08:54;;;;;;;;;;;;;;;;;;350047;28;877;-77
2022/05/14 01:09:07;;;;;;;;;;;;;;;;;;349952;28;960;-77
2022/05/14 01:09:21;;;;;;;;;;;;;;;;;;349866;28;1283;-77
2022/05/14 01:09:57;;;;;;;;;;;;;;;;;;349888;28;917;-76
2022/05/14 01:10:10;;;;;;;;;;;;;;;;;;348604;28;1898;-77
2022/05/14 01:10:22;;;;;;;;;;;;;;;;;;348421;28;810;-77
2022/05/14 01:10:40;;;;;;;;;;;;;;;;;;348565;28;858;-77
2022/05/14 01:10:57;;;;;;;;;;;;;;;;;;348566;28;1497;-77
2022/05/14 01:11:08;;;;;;;;;;;;;;;;;;348557;28;885;-77
2022/05/14 01:11:21;;;;;;;;;;;;;;;;;;348605;28;871;-77
2022/05/14 01:11:33;;;;;;;;;;;;;;;;;;348629;28;931;-77
2022/05/14 01:11:44;;;;;;;;;;;;;;;;;;348642;28;850;-77
2022/05/14 01:11:55;;;;;;;;;;;;;;;;;;348579;28;987;-77
2022/05/14 01:12:07;;;;;;;;;;;;;;;;;;349225;28;1478;-77
2022/05/14 01:12:19;;;;;;;;;;;;;;;;;;350050;28;877;-77
2022/05/14 01:12:34;;;;;;;;;;;;;;;;;;350023;28;904;-76
2022/05/14 01:12:50;;;;;;;;;;;;;;;;;;349981;28;894;-77
2022/05/14 01:13:01;;;;;;;;;;;;;;;;;;350018;28;1002;-77
2022/05/14 01:13:12;;;;;;;;;;;;;;;;;;349319;28;1512;-77
2022/05/14 01:13:25;;;;;;;;;;;;;;;;;;350029;28;842;-77
2022/05/14 01:13:35;;;;;;;;;;;;;;;;;;349986;28;877;-77
2022/05/14 01:13:46;;;;;;;;;;;;;;;;;;350009;28;992;-77
2022/05/14 01:13:57;;;;;;;;;;;;;;;;;;349994;28;920;-77
2022/05/14 01:14:08;;;;;;;;;;;;;;;;;;349817;28;1243;-77
2022/05/14 01:14:19;;;;;;;;;;;;;;;;;;349989;28;900;-77
2022/05/14 01:14:30;;;;;;;;;;;;;;;;;;350000;28;932;-77
2022/05/14 01:14:43;;;;;;;;;;;;;;;;;;350026;28;920;-77
2022/05/14 01:14:53;;;;;;;;;;;;;;;;;;350043;28;866;-77
2022/05/14 01:15:23;;;;;;;;;;;;;;;;;;348808;28;1483;-77
2022/05/14 01:15:40;;;;;;;;;;;;;;;;;;349923;28;1091;-77
2022/05/14 01:15:58;;;;;;;;;;;;;;;;;;350011;28;844;-77
2022/05/14 01:16:08;;;;;;;;;;;;;;;;;;349979;28;997;-77
2022/05/14 01:16:20;;;;;;;;;;;;;;;;;;350020;28;798;-77
2022/05/14 01:16:30;;;;;;;;;;;;;;;;;;350074;28;932;-77
2022/05/14 01:16:46;;;;;;;;;;;;;;;;;;349998;28;846;-77
2022/05/14 01:16:59;;;;;;;;;;;;;;;;;;350050;28;830;-77
2022/05/14 01:17:13;;;;;;;;;;;;;;;;;;349941;28;1169;-77
2022/05/14 01:17:24;;;;;;;;;;;;;;;;;;350066;28;821;-77
2022/05/14 01:17:36;;;;;;;;;;;;;;;;;;350002;28;861;-77
2022/05/14 01:17:47;;;;;;;;;;;;;;;;;;349953;28;881;-77
2022/05/14 01:17:57;;;;;;;;;;;;;;;;;;349380;28;1196;-77
2022/05/14 01:18:08;;;;;;;;;;;;;;;;;;350048;28;1046;-77
2022/05/14 01:18:22;;;;;;;;;;;;;;;;;;349972;28;917;-77
2022/05/14 01:18:35;;;;;;;;;;;;;;;;;;349963;28;889;-77
2022/05/14 01:18:45;;;;;;;;;;;;;;;;;;350079;28;888;-77
2022/05/14 01:18:56;;;;;;;;;;;;;;;;;;349995;28;893;-77
2022/05/14 01:19:07;;;;;;;;;;;;;;;;;;350024;28;869;-77
2022/05/14 01:19:18;;;;;;;;;;;;;;;;;;350052;28;888;-77
2022/05/14 01:19:28;;;;;;;;;;;;;;;;;;349900;28;964;-77
2022/05/14 01:19:47;;;;;;;;;;;;;;;;;;349818;28;896;-77
2022/05/14 01:19:58;;;;;;;;;;;;;;;;;;349345;28;1363;-77
2022/05/14 01:20:09;;;;;;;;;;;;;;;;;;348487;28;885;-77
2022/05/14 01:20:19;;;;;;;;;;;;;;;;;;348558;28;818;-77
2022/05/14 01:20:35;;;;;;;;;;;;;;;;;;348543;28;883;-77
2022/05/14 01:20:57;;;;;;;;;;;;;;;;;;348503;28;925;-77
2022/05/14 01:21:23;;;;;;;;;;;;;;;;;;348481;28;1014;-77
2022/05/14 01:21:55;;;;;;;;;;;;;;;;;;348290;28;951;-77
2022/05/14 01:22:34;;;;;;;;;;;;;;;;;;349399;28;1496;-77
2022/05/14 01:23:02;;;;;;;;;;;;;;;;;;348683;28;873;-76
2022/05/14 01:23:19;;;;;;;;;;;;;;;;;;348609;28;889;-76
2022/05/14 01:26:27;;;;;;;;;;;;;;;;;;348601;28;927;-77
2022/05/14 01:26:41;;;;;;;;;;;;;;;;;;348442;28;1202;-77
2022/05/14 01:26:52;;;;;;;;;;;;;;;;;;348641;28;819;-77
2022/05/14 01:27:03;;;;;;;;;;;;;;;;;;350684;28;1694;-76
2022/05/14 01:27:14;;;;;;;;;;;;;;;;;;351366;28;892;-77
2022/05/14 01:27:25;;;;;;;;;;;;;;;;;;351464;28;798;-77
2022/05/14 01:27:35;;;;;;;;;;;;;;;;;;351227;28;1132;-77
2022/05/14 01:27:52;;;;;;;;;;;;;;;;;;348603;28;829;-77
2022/05/14 01:28:03;;;;;;;;;;;;;;;;;;348221;28;1007;-77
2022/05/14 01:28:13;;;;;;;;;;;;;;;;;;349094;28;895;-76
2022/05/14 01:28:29;;;;;;;;;;;;;;;;;;348550;28;885;-77
2022/05/14 01:28:42;;;;;;;;;;;;;;;;;;348565;28;1017;-77
2022/05/14 01:29:02;;;;;;;;;;;;;;;;;;348515;28;845;-77
2022/05/14 01:29:22;;;;;;;;;;;;;;;;;;348055;28;984;-77
2022/05/14 01:29:36;;;;;;;;;;;;;;;;;;347006;28;1471;-77
2022/05/14 01:29:49;;;;;;;;;;;;;;;;;;346689;28;1262;-77
2022/05/14 01:30:05;;;;;;;;;;;;;;;;;;346979;28;1890;-77
2022/05/14 01:30:17;;;;;;;;;;;;;;;;;;347146;28;889;-77
2022/05/14 01:30:28;;;;;;;;;;;;;;;;;;347157;28;956;-77
2022/05/14 01:30:56;;;;;;;;;;;;;;;;;;347308;28;885;-77
2022/05/14 01:31:07;;;;;;;;;;;;;;;;;;348492;28;817;-77
2022/05/14 01:31:17;;;;;;;;;;;;;;;;;;348439;28;1447;-77
2022/05/14 01:31:30;;;;;;;;;;;;;;;;;;349539;28;942;-77
2022/05/14 01:31:46;;;;;;;;;;;;;;;;;;349212;28;818;-77
2022/05/14 01:31:56;;;;;;;;;;;;;;;;;;348605;28;947;-77
2022/05/14 01:32:09;;;;;;;;;;;;;;;;;;348586;28;882;-77
2022/05/14 01:32:20;;;;;;;;;;;;;;;;;;348657;28;853;-77
2022/05/14 01:32:30;;;;;;;;;;;;;;;;;;348507;28;865;-77
2022/05/14 01:32:46;;;;;;;;;;;;;;;;;;348910;28;1056;-77
2022/05/14 01:33:06;;;;;;;;;;;;;;;;;;348880;28;977;-77
2022/05/14 01:33:16;;;;;;;;;;;;;;;;;;348464;28;828;-77
2022/05/14 01:33:31;;;;;;;;;;;;;;;;;;348605;28;889;-77
2022/05/14 01:33:41;;;;;;;;;;;;;;;;;;348664;28;897;-77
2022/05/14 01:33:55;;;;;;;;;;;;;;;;;;348619;28;877;-77
2022/05/14 01:34:10;;;;;;;;;;;;;;;;;;348277;28;1050;-77
2022/05/14 01:34:27;;;;;;;;;;;;;;;;;;348586;28;944;-77
2022/05/14 01:34:38;;;;;;;;;;;;;;;;;;348566;28;839;-77
2022/05/14 01:34:50;;;;;;;;;;;;;;;;;;348600;28;983;-77